Time;durP1;ratioP1;P1;durP2;ratioP2;P2;SDS_P1;SDS_P2;PMS_P1;PMS_P2;Temp;Humidity;BMP_temperature;BMP_pressure;BME280_temperature;BME280_humidity;BME280_pressure;Samples;Min_cycle;Max_cycle;Signal;HPM_P1;HPM_P2
2021/03/19 00:00:43;;;;;;;41.35;29.13;;;;;;;;;;5094470;28;20032;-68
2021/03/19 00:03:09;;;;;;;50.03;31.42;;;;;;;;;;5093596;28;20031;-67
2021/03/19 00:05:35;;;;;;;48.30;28.88;;;;;;;;;;5095115;28;20057;-66
2021/03/19 00:08:01;;;;;;;45.92;31.50;;;;;;;;;;5094035;28;20074;-67
2021/03/19 00:10:28;;;;;;;46.70;30.48;;;;;;;;;;5094369;28;20086;-65
2021/03/19 00:12:55;;;;;;;54.38;32.25;;;;;;;;;;5094410;28;20481;-65
2021/03/19 00:15:23;;;;;;;45.33;28.25;;;;;;;;;;5094744;28;20107;-68
2021/03/19 00:17:50;;;;;;;53.83;31.35;;;;;;;;;;5094872;28;20024;-68
2021/03/19 00:20:16;;;;;;;51.92;30.60;;;;;;;;;;5094729;28;20024;-68
2021/03/19 00:22:42;;;;;;;46.15;29.48;;;;;;;;;;5094304;28;20020;-70
2021/03/19 00:25:09;;;;;;;47.22;29.67;;;;;;;;;;5094419;28;20013;-69
2021/03/19 00:27:35;;;;;;;51.03;29.90;;;;;;;;;;5093149;28;20020;-66
2021/03/19 00:30:02;;;;;;;44.95;29.10;;;;;;;;;;5094148;28;20024;-69
2021/03/19 00:32:28;;;;;;;53.40;32.22;;;;;;;;;;5093931;28;20023;-68
2021/03/19 00:34:54;;;;;;;47.20;28.70;;;;;;;;;;5093081;28;20409;-66
2021/03/19 00:37:21;;;;;;;47.08;29.00;;;;;;;;;;5108731;28;20028;-67
2021/03/19 00:39:47;;;;;;;46.75;27.75;;;;;;;;;;5114675;28;20378;-67
2021/03/19 00:42:14;;;;;;;47.45;28.70;;;;;;;;;;5114124;28;20027;-69
2021/03/19 00:44:41;;;;;;;49.95;27.77;;;;;;;;;;5114694;28;20039;-66
2021/03/19 00:47:07;;;;;;;47.33;28.47;;;;;;;;;;5115002;28;20023;-65
2021/03/19 00:49:33;;;;;;;45.35;28.38;;;;;;;;;;5130810;27;20042;-66
2021/03/19 00:51:59;;;;;;;43.65;26.63;;;;;;;;;;5135015;27;20438;-65
2021/03/19 00:54:25;;;;;;;47.58;27.25;;;;;;;;;;5134954;27;20019;-66
2021/03/19 00:56:52;;;;;;;43.08;27.17;;;;;;;;;;5134798;27;20027;-67
2021/03/19 00:59:18;;;;;;;55.88;32.42;;;;;;;;;;5134846;27;20027;-67
2021/03/19 01:01:44;;;;;;;51.72;28.73;;;;;;;;;;5122028;27;20036;-66
2021/03/19 01:04:10;;;;;;;45.00;25.70;;;;;;;;;;5114102;28;20530;-66
2021/03/19 01:06:36;;;;;;;37.97;24.80;;;;;;;;;;5114211;28;20086;-66
2021/03/19 01:09:02;;;;;;;35.42;23.05;;;;;;;;;;5114425;28;20102;-68
2021/03/19 01:11:29;;;;;;;38.00;24.65;;;;;;;;;;5113863;28;20473;-66
2021/03/19 01:13:55;;;;;;;34.50;22.90;;;;;;;;;;5114171;28;20102;-67
2021/03/19 01:16:23;;;;;;;38.03;22.30;;;;;;;;;;5114142;28;20473;-67
2021/03/19 01:18:49;;;;;;;37.03;21.10;;;;;;;;;;5113851;28;20015;-65
2021/03/19 01:21:17;;;;;;;33.53;20.65;;;;;;;;;;5114005;28;20116;-66
2021/03/19 01:23:44;;;;;;;32.88;21.02;;;;;;;;;;5114885;28;20031;-66
2021/03/19 01:26:11;;;;;;;35.35;20.13;;;;;;;;;;5113727;28;20061;-67
2021/03/19 01:28:37;;;;;;;35.30;21.10;;;;;;;;;;5113777;28;20103;-67
2021/03/19 01:31:04;;;;;;;38.05;20.95;;;;;;;;;;5095263;28;20389;-66
2021/03/19 01:33:30;;;;;;;37.22;22.88;;;;;;;;;;5113083;28;20379;-65
2021/03/19 01:35:56;;;;;;;45.97;25.40;;;;;;;;;;5113664;28;20019;-66
2021/03/19 01:38:22;;;;;;;47.05;26.48;;;;;;;;;;5095317;28;20423;-66
2021/03/19 01:40:48;;;;;;;38.58;24.33;;;;;;;;;;5113540;28;20085;-66
2021/03/19 01:43:16;;;;;;;33.97;21.92;;;;;;;;;;5113910;28;20023;-66
2021/03/19 01:46:01;;;;;;;29.10;19.73;;;;;;;;;;5114760;28;20023;-67
2021/03/19 01:48:46;;;;;;;32.63;19.88;;;;;;;;;;5118169;28;20048;-65
2021/03/19 01:51:30;;;;;;;30.48;19.85;;;;;;;;;;5117517;28;20059;-66
2021/03/19 01:54:14;;;;;;;31.10;18.33;;;;;;;;;;5117633;28;20035;-66
2021/03/19 01:56:59;;;;;;;28.45;19.25;;;;;;;;;;5117119;28;20032;-68
2021/03/19 01:59:43;;;;;;;27.70;17.10;;;;;;;;;;5116867;28;20031;-68
2021/03/19 02:02:28;;;;;;;23.75;15.85;;;;;;;;;;5117591;28;20401;-69
2021/03/19 02:05:12;;;;;;;21.52;14.07;;;;;;;;;;5117288;28;20023;-69
2021/03/19 02:07:57;;;;;;;22.92;14.07;;;;;;;;;;5099011;28;20047;-69
2021/03/19 02:10:42;;;;;;;20.38;14.13;;;;;;;;;;5117346;28;20466;-68
2021/03/19 02:13:26;;;;;;;16.02;11.07;;;;;;;;;;5117594;28;20099;-68
2021/03/19 02:16:11;;;;;;;18.58;11.00;;;;;;;;;;5117586;28;20023;-67
2021/03/19 02:18:56;;;;;;;20.25;12.32;;;;;;;;;;5117597;28;20413;-66
2021/03/19 02:21:40;;;;;;;16.55;10.65;;;;;;;;;;5098519;28;20378;-66
2021/03/19 02:24:25;;;;;;;17.80;12.05;;;;;;;;;;5116840;28;20028;-65
2021/03/19 02:27:09;;;;;;;26.75;14.90;;;;;;;;;;5117116;28;20028;-66
2021/03/19 02:29:54;;;;;;;19.20;12.98;;;;;;;;;;5116843;28;20028;-68
2021/03/19 02:32:22;;;;;;;18.40;12.40;;;;;;;;;;5116881;28;20071;-66
2021/03/19 02:34:51;;;;;;;18.88;12.63;;;;;;;;;;5116428;28;20027;-65
2021/03/19 02:37:19;;;;;;;19.90;12.50;;;;;;;;;;5116934;28;20063;-65
2021/03/19 02:39:46;;;;;;;17.95;12.15;;;;;;;;;;5116890;28;20023;-65
2021/03/19 02:42:13;;;;;;;17.92;11.98;;;;;;;;;;5116494;28;20036;-66
2021/03/19 02:44:39;;;;;;;17.65;11.45;;;;;;;;;;5116806;28;20460;-65
2021/03/19 02:47:06;;;;;;;17.88;12.90;;;;;;;;;;5116502;28;20072;-66
2021/03/19 02:49:32;;;;;;;38.30;25.23;;;;;;;;;;5115716;28;20044;-66
2021/03/19 02:51:58;;;;;;;45.10;24.85;;;;;;;;;;5098450;28;20027;-68
2021/03/19 02:54:25;;;;;;;63.63;34.05;;;;;;;;;;5098025;28;20023;-68
2021/03/19 02:56:51;;;;;;;57.75;31.77;;;;;;;;;;5115055;28;20019;-67
2021/03/19 02:59:18;;;;;;;78.15;35.47;;;;;;;;;;5116347;28;20031;-67
2021/03/19 03:01:45;;;;;;;45.63;26.77;;;;;;;;;;5098200;28;20031;-67
2021/03/19 03:04:14;;;;;;;42.23;25.60;;;;;;;;;;5097850;28;20031;-67
2021/03/19 03:06:45;;;;;;;44.80;24.42;;;;;;;;;;5116355;28;20034;-66
2021/03/19 03:09:12;;;;;;;34.05;21.83;;;;;;;;;;5116224;28;20027;-70
2021/03/19 03:11:39;;;;;;;64.78;36.10;;;;;;;;;;5116567;28;20019;-66
2021/03/19 03:14:06;;;;;;;157.82;67.38;;;;;;;;;;5116797;28;20015;-65
2021/03/19 03:16:32;;;;;;;;;;;;;;;;;;5098018;28;20042;-66
2021/03/19 03:18:58;;;;;;;96.57;45.33;;;;;;;;;;5115660;28;19914;-65
2021/03/19 03:21:24;;;;;;;95.22;44.25;;;;;;;;;;5116716;28;20030;-65
2021/03/19 03:23:51;;;;;;;81.78;41.90;;;;;;;;;;5097015;28;20028;-65
2021/03/19 03:26:17;;;;;;;75.95;40.50;;;;;;;;;;5115996;28;20091;-65
2021/03/19 03:28:43;;;;;;;48.80;29.85;;;;;;;;;;5116239;28;20019;-65
2021/03/19 03:31:09;;;;;;;46.30;30.17;;;;;;;;;;5115583;28;20031;-66
2021/03/19 03:33:35;;;;;;;41.80;25.23;;;;;;;;;;5115596;28;20024;-66
2021/03/19 03:36:02;;;;;;;46.20;29.98;;;;;;;;;;5115762;28;20020;-64
2021/03/19 03:38:28;;;;;;;41.58;26.67;;;;;;;;;;5115738;28;20027;-66
2021/03/19 03:40:56;;;;;;;43.28;26.15;;;;;;;;;;5115613;28;20111;-66
2021/03/19 03:43:22;;;;;;;50.28;31.38;;;;;;;;;;5116178;27;20504;-66
2021/03/19 03:45:48;;;;;;;49.53;28.63;;;;;;;;;;5114894;28;20032;-67
2021/03/19 03:48:16;;;;;;;51.05;29.40;;;;;;;;;;5115110;28;20079;-65
2021/03/19 03:50:42;;;;;;;;;;;;;;;;;;5115922;28;20110;-67
2021/03/19 03:53:09;;;;;;;41.58;26.55;;;;;;;;;;5115136;28;19994;-65
2021/03/19 03:55:36;;;;;;;46.35;28.25;;;;;;;;;;5115160;28;20466;-64
2021/03/19 03:58:03;;;;;;;39.75;24.08;;;;;;;;;;5115426;28;20024;-66
2021/03/19 04:00:29;;;;;;;40.73;24.87;;;;;;;;;;5114684;28;20482;-66
2021/03/19 04:02:55;;;;;;;38.70;23.35;;;;;;;;;;5115400;28;20094;-67
2021/03/19 04:05:23;;;;;;;36.25;24.30;;;;;;;;;;5114939;28;20346;-66
2021/03/19 04:07:50;;;;;;;40.28;21.75;;;;;;;;;;5114865;28;20353;-65
2021/03/19 04:10:16;;;;;;;33.25;21.23;;;;;;;;;;5115222;28;20023;-66
2021/03/19 04:12:43;;;;;;;29.20;19.77;;;;;;;;;;5114667;28;20031;-66
2021/03/19 04:15:09;;;;;;;34.03;21.00;;;;;;;;;;5114784;28;20385;-66
2021/03/19 04:17:35;;;;;;;33.55;20.48;;;;;;;;;;5115316;28;20254;-65
2021/03/19 04:20:04;;;;;;;32.38;19.92;;;;;;;;;;5114407;28;20051;-66
2021/03/19 04:22:30;;;;;;;31.13;18.48;;;;;;;;;;5114519;28;20575;-66
2021/03/19 04:24:56;;;;;;;32.15;17.95;;;;;;;;;;5114588;28;20019;-65
2021/03/19 04:27:24;;;;;;;31.85;19.38;;;;;;;;;;5096243;28;20115;-66
2021/03/19 04:29:51;;;;;;;;;;;;;;;;;;5115215;28;20028;-68
2021/03/19 04:32:17;;;;;;;35.47;19.63;;;;;;;;;;5097223;28;19903;-67
2021/03/19 04:34:43;;;;;;;39.85;24.08;;;;;;;;;;5114356;28;20093;-67
2021/03/19 04:37:10;;;;;;;39.50;24.05;;;;;;;;;;5114695;28;20403;-66
2021/03/19 04:39:36;;;;;;;;;;;;;;;;;;5096805;28;20019;-67
2021/03/19 04:42:03;;;;;;;39.00;21.90;;;;;;;;;;5114233;28;19951;-68
2021/03/19 04:44:31;;;;;;;44.33;26.00;;;;;;;;;;5114353;28;20095;-67
2021/03/19 04:46:57;;;;;;;44.25;26.48;;;;;;;;;;5103308;28;20058;-66
2021/03/19 04:49:23;;;;;;;51.00;27.33;;;;;;;;;;5111129;28;20044;-67
2021/03/19 04:51:49;;;;;;;68.07;32.25;;;;;;;;;;5109983;28;20027;-67
2021/03/19 04:54:15;;;;;;;52.58;25.13;;;;;;;;;;5110904;28;20019;-67
2021/03/19 04:56:41;;;;;;;30.60;15.20;;;;;;;;;;5110826;28;20011;-67
2021/03/19 04:59:08;;;;;;;18.02;10.82;;;;;;;;;;5114100;28;20055;-66
2021/03/19 05:01:46;;;;;;;17.63;9.43;;;;;;;;;;5078823;28;20058;-66
2021/03/19 05:04:12;;;;;;;16.17;10.13;;;;;;;;;;5094089;28;20042;-66
2021/03/19 05:06:38;;;;;;;16.45;9.88;;;;;;;;;;5084318;28;20039;-64
2021/03/19 05:09:04;;;;;;;16.08;8.75;;;;;;;;;;5112558;28;20020;-63
2021/03/19 05:11:30;;;;;;;16.98;8.85;;;;;;;;;;5111952;28;20035;-64
2021/03/19 05:13:56;;;;;;;17.65;10.25;;;;;;;;;;5112008;28;20533;-65
2021/03/19 05:16:22;;;;;;;16.33;8.85;;;;;;;;;;5111865;28;20027;-64
2021/03/19 05:18:49;;;;;;;12.63;8.02;;;;;;;;;;5111846;28;20015;-65
2021/03/19 05:21:15;;;;;;;14.65;10.25;;;;;;;;;;5114355;28;20384;-64
2021/03/19 05:23:41;;;;;;;15.02;8.52;;;;;;;;;;5117570;28;20102;-67
2021/03/19 05:26:07;;;;;;;14.27;9.70;;;;;;;;;;5118337;28;20473;-65
2021/03/19 05:28:34;;;;;;;16.38;10.00;;;;;;;;;;5117997;28;20089;-67
2021/03/19 05:31:00;;;;;;;19.38;10.68;;;;;;;;;;5117781;28;20649;-66
2021/03/19 05:33:29;;;;;;;18.30;10.17;;;;;;;;;;5118768;28;20099;-66
2021/03/19 05:35:56;;;;;;;22.65;10.95;;;;;;;;;;5118443;28;20028;-64
2021/03/19 05:38:22;;;;;;;18.90;12.68;;;;;;;;;;5117835;28;20027;-65
2021/03/19 05:40:52;;;;;;;22.17;12.63;;;;;;;;;;5117802;28;20057;-67
2021/03/19 05:43:22;;;;;;;20.13;10.98;;;;;;;;;;5099395;28;20024;-65
2021/03/19 05:45:56;;;;;;;19.33;10.93;;;;;;;;;;5118234;28;20024;-65
2021/03/19 05:48:24;;;;;;;18.27;11.30;;;;;;;;;;5117545;28;20093;-64
2021/03/19 05:50:50;;;;;;;;;;;;;;;;;;5118119;28;20127;-65
2021/03/19 05:53:17;;;;;;;14.25;8.80;;;;;;;;;;5117813;28;19926;-66
2021/03/19 05:55:44;;;;;;;13.45;9.30;;;;;;;;;;5117880;28;20061;-65
2021/03/19 05:58:30;;;;;;;16.40;9.20;;;;;;;;;;5117593;28;20034;-65
2021/03/19 06:00:57;;;;;;;16.52;9.20;;;;;;;;;;5117603;28;20041;-67
2021/03/19 06:03:25;;;;;;;14.65;9.32;;;;;;;;;;5117138;28;20473;-66
2021/03/19 06:05:51;;;;;;;;;;;;;;;;;;5117642;28;20012;-67
2021/03/19 06:08:26;;;;;;;14.05;9.07;;;;;;;;;;5117819;28;20018;-64
2021/03/19 06:11:03;;;;;;;18.95;10.68;;;;;;;;;;5117529;28;20023;-67
2021/03/19 06:13:44;;;;;;;19.92;11.02;;;;;;;;;;5117229;28;20016;-65
2021/03/19 06:16:26;;;;;;;22.85;13.02;;;;;;;;;;5117688;28;20020;-67
2021/03/19 06:18:53;;;;;;;18.08;10.13;;;;;;;;;;5117234;28;20076;-66
2021/03/19 06:21:19;;;;;;;;;;;;;;;;;;5117641;28;20035;-68
2021/03/19 06:24:00;;;;;;;16.35;10.35;;;;;;;;;;5116999;28;20410;-66
2021/03/19 06:26:34;;;;;;;22.73;11.48;;;;;;;;;;5116549;28;20023;-66
2021/03/19 06:29:09;;;;;;;19.10;12.20;;;;;;;;;;5117476;28;20556;-67
2021/03/19 06:31:35;;;;;;;16.10;9.57;;;;;;;;;;5116696;28;20422;-71
2021/03/19 06:34:04;;;;;;;16.70;9.93;;;;;;;;;;5116488;28;20031;-69
2021/03/19 06:36:31;;;;;;;18.88;9.10;;;;;;;;;;5116701;28;20055;-63
2021/03/19 06:39:20;;;;;;;13.80;9.27;;;;;;;;;;5116954;28;20379;-64
2021/03/19 06:41:59;;;;;;;13.13;8.43;;;;;;;;;;5117475;28;20059;-64
2021/03/19 06:44:25;;;;;;;11.38;7.72;;;;;;;;;;5117126;28;20045;-64
2021/03/19 06:46:57;;;;;;;15.35;8.57;;;;;;;;;;5116602;28;20383;-66
2021/03/19 06:49:24;;;;;;;10.45;7.40;;;;;;;;;;5116553;28;20088;-63
2021/03/19 06:52:10;;;;;;;12.98;7.38;;;;;;;;;;5099666;28;20403;-62
2021/03/19 06:54:48;;;;;;;11.80;7.00;;;;;;;;;;5099053;27;20447;-61
2021/03/19 06:57:14;;;;;;;;;;;;;;;;;;5117776;28;20481;-64
2021/03/19 06:59:43;;;;;;;14.57;8.63;;;;;;;;;;5116568;28;19912;-63
2021/03/19 07:02:24;;;;;;;10.05;5.78;;;;;;;;;;5116162;28;20030;-61
2021/03/19 07:05:13;;;;;;;10.23;5.82;;;;;;;;;;5116575;28;20051;-63
2021/03/19 07:07:43;;;;;;;13.82;5.85;;;;;;;;;;5115967;28;20030;-61
2021/03/19 07:10:18;;;;;;;12.15;6.40;;;;;;;;;;5116173;28;20020;-62
2021/03/19 07:12:44;;;;;;;11.98;7.65;;;;;;;;;;5116798;28;20023;-61
2021/03/19 07:15:16;;;;;;;12.15;8.02;;;;;;;;;;5115959;28;20110;-61
2021/03/19 07:17:50;;;;;;;7.82;5.60;;;;;;;;;;5117179;28;20369;-61
2021/03/19 07:20:28;;;;;;;14.63;7.18;;;;;;;;;;5116428;28;20052;-61
2021/03/19 07:23:05;;;;;;;13.82;7.95;;;;;;;;;;5115839;28;20028;-61
2021/03/19 07:25:34;;;;;;;52.75;19.77;;;;;;;;;;5116524;28;20050;-60
2021/03/19 07:28:14;;;;;;;62.30;19.77;;;;;;;;;;5116404;28;20161;-64
2021/03/19 07:30:47;;;;;;;104.90;33.80;;;;;;;;;;5115808;28;20032;-60
2021/03/19 07:33:32;;;;;;;85.22;28.13;;;;;;;;;;5116254;28;20064;-62
2021/03/19 07:35:58;;;;;;;77.75;26.70;;;;;;;;;;5115669;28;20028;-67
2021/03/19 07:38:33;;;;;;;45.85;17.67;;;;;;;;;;5116434;28;20027;-67
2021/03/19 07:40:59;;;;;;;52.47;18.50;;;;;;;;;;5099797;28;20366;-67
2021/03/19 07:43:34;;;;;;;51.40;18.65;;;;;;;;;;5099780;28;20488;-66
2021/03/19 07:46:00;;;;;;;32.22;13.85;;;;;;;;;;5099802;28;20482;-63
2021/03/19 07:48:45;;;;;;;30.60;15.68;;;;;;;;;;5117159;28;20077;-65
2021/03/19 07:51:18;;;;;;;20.55;12.70;;;;;;;;;;5117108;28;20039;-63
2021/03/19 07:53:53;;;;;;;20.65;11.60;;;;;;;;;;5117283;28;20373;-62
2021/03/19 07:56:29;;;;;;;17.02;10.30;;;;;;;;;;5118032;28;20038;-65
2021/03/19 07:58:57;;;;;;;15.98;9.35;;;;;;;;;;5117351;28;20032;-64
2021/03/19 08:01:27;;;;;;;17.60;9.73;;;;;;;;;;5116218;28;20478;-63
2021/03/19 08:04:04;;;;;;;14.18;9.02;;;;;;;;;;5115205;28;20031;-63
2021/03/19 08:06:37;;;;;;;14.73;9.68;;;;;;;;;;5115673;28;20051;-63
2021/03/19 08:09:03;;;;;;;14.65;9.07;;;;;;;;;;5114859;28;20024;-64
2021/03/19 08:11:32;;;;;;;17.80;9.60;;;;;;;;;;5114179;28;20023;-65
2021/03/19 08:14:00;;;;;;;19.20;10.48;;;;;;;;;;5114954;28;20081;-64
2021/03/19 08:16:42;;;;;;;17.67;10.35;;;;;;;;;;5115052;28;20019;-64
2021/03/19 08:19:14;;;;;;;17.23;10.45;;;;;;;;;;5114552;28;20492;-63
2021/03/19 08:22:04;;;;;;;20.20;10.50;;;;;;;;;;5115427;28;20355;-63
2021/03/19 08:24:56;;;;;;;11.68;7.13;;;;;;;;;;5114729;28;20507;-63
2021/03/19 08:27:22;;;;;;;13.80;8.57;;;;;;;;;;5058668;28;20523;-64
2021/03/19 08:29:59;;;;;;;15.32;8.40;;;;;;;;;;5097137;28;20019;-65
2021/03/19 08:32:33;;;;;;;12.30;7.22;;;;;;;;;;5114439;28;20031;-63
2021/03/19 08:35:06;;;;;;;11.05;7.28;;;;;;;;;;5115347;28;20023;-64
2021/03/19 08:37:49;;;;;;;12.13;7.50;;;;;;;;;;5114372;28;20030;-64
2021/03/19 08:40:29;;;;;;;9.38;5.35;;;;;;;;;;5116291;27;20023;-64
2021/03/19 08:42:55;;;;;;;9.30;6.25;;;;;;;;;;5095479;27;20111;-64
2021/03/19 08:45:23;;;;;;;7.32;5.70;;;;;;;;;;5093600;28;20091;-64
2021/03/19 08:47:51;;;;;;;9.05;6.07;;;;;;;;;;5106721;28;20485;-65
2021/03/19 08:50:17;;;;;;;11.88;7.32;;;;;;;;;;5114228;28;20023;-65
2021/03/19 08:53:01;;;;;;;14.63;7.72;;;;;;;;;;5114045;28;20487;-65
2021/03/19 08:55:29;;;;;;;12.90;6.80;;;;;;;;;;5095245;28;20027;-64
2021/03/19 08:57:57;;;;;;;10.65;5.97;;;;;;;;;;5114366;28;20027;-65
2021/03/19 09:00:26;;;;;;;8.57;5.22;;;;;;;;;;5113492;28;20358;-64
2021/03/19 09:02:58;;;;;;;9.80;6.07;;;;;;;;;;5114197;28;20470;-65
2021/03/19 09:05:24;;;;;;;16.10;7.95;;;;;;;;;;5114344;28;20012;-69
2021/03/19 09:08:09;;;;;;;13.40;8.40;;;;;;;;;;5113312;28;20126;-66
2021/03/19 09:10:35;;;;;;;22.50;10.50;;;;;;;;;;5114144;28;20036;-69
2021/03/19 09:13:07;;;;;;;17.00;9.30;;;;;;;;;;5095884;28;20020;-65
2021/03/19 09:15:36;;;;;;;13.55;7.18;;;;;;;;;;5113732;28;20023;-67
2021/03/19 09:18:06;;;;;;;9.23;5.60;;;;;;;;;;5114193;28;20068;-66
2021/03/19 09:20:41;;;;;;;12.45;6.10;;;;;;;;;;5113665;28;20022;-66
2021/03/19 09:23:10;;;;;;;21.35;11.18;;;;;;;;;;5114005;28;20415;-65
2021/03/19 09:25:40;;;;;;;13.45;6.82;;;;;;;;;;5113981;28;20023;-65
2021/03/19 09:28:17;;;;;;;10.60;6.43;;;;;;;;;;5113330;28;20028;-66
2021/03/19 09:30:51;;;;;;;10.52;6.13;;;;;;;;;;5124052;28;20023;-68
2021/03/19 09:33:35;;;;;;;21.08;8.45;;;;;;;;;;5134454;28;20419;-67
2021/03/19 09:36:01;;;;;;;10.15;4.72;;;;;;;;;;5129625;28;20032;-67
2021/03/19 09:38:27;;;;;;;15.35;7.93;;;;;;;;;;5113873;28;20086;-67
2021/03/19 09:40:56;;;;;;;11.18;6.63;;;;;;;;;;5095425;28;20055;-65
2021/03/19 09:43:46;;;;;;;11.25;5.53;;;;;;;;;;5113234;28;20024;-66
2021/03/19 09:46:24;;;;;;;6.68;5.38;;;;;;;;;;5101308;28;20028;-66
2021/03/19 09:49:03;;;;;;;20.38;9.07;;;;;;;;;;5113337;28;20440;-65
2021/03/19 09:51:29;;;;;;;69.90;25.77;;;;;;;;;;5113737;28;20477;-65
2021/03/19 09:53:55;;;;;;;15.32;7.60;;;;;;;;;;5113436;28;20032;-64
2021/03/19 09:56:24;;;;;;;19.92;9.07;;;;;;;;;;5113131;28;20023;-64
2021/03/19 09:58:51;;;;;;;22.65;9.35;;;;;;;;;;5113690;28;20034;-66
2021/03/19 10:01:26;;;;;;;13.07;6.72;;;;;;;;;;5113866;28;20042;-63
2021/03/19 10:14:57;;;;;;;18.50;9.00;;;;;;;;;;5173006;27;20447;-63
2021/03/19 10:17:23;;;;;;;84.57;29.02;;;;;;;;;;5134010;27;20038;-62
2021/03/19 10:19:53;;;;;;;16.65;6.93;;;;;;;;;;5152408;27;20015;-64
2021/03/19 10:22:39;;;;;;;8.13;4.93;;;;;;;;;;5151592;27;20061;-66
2021/03/19 10:25:17;;;;;;;74.65;38.22;;;;;;;;;;5152572;27;20046;-65
2021/03/19 10:27:45;;;;;;;37.70;20.50;;;;;;;;;;5133247;27;20031;-66
2021/03/19 10:30:16;;;;;;;17.52;9.80;;;;;;;;;;5151975;27;20464;-65
2021/03/19 10:32:43;;;;;;;10.45;7.40;;;;;;;;;;5152035;27;20437;-65
2021/03/19 10:35:17;;;;;;;10.18;6.82;;;;;;;;;;5133385;27;20033;-67
2021/03/19 10:38:01;;;;;;;8.65;4.75;;;;;;;;;;5152282;27;20023;-64
2021/03/19 10:40:34;;;;;;;19.10;8.02;;;;;;;;;;5151702;27;20054;-66
2021/03/19 10:43:19;;;;;;;9.48;5.40;;;;;;;;;;5151784;27;20031;-67
2021/03/19 10:45:48;;;;;;;12.10;6.57;;;;;;;;;;5151970;27;20070;-64
2021/03/19 10:48:43;;;;;;;13.40;7.78;;;;;;;;;;5151633;27;20019;-66
2021/03/19 10:51:14;;;;;;;11.43;5.30;;;;;;;;;;5129937;27;20035;-67
2021/03/19 10:53:40;;;;;;;8.40;5.35;;;;;;;;;;5151524;27;20020;-66
2021/03/19 10:56:06;;;;;;;13.13;5.93;;;;;;;;;;5151719;27;20039;-65
2021/03/19 10:58:37;;;;;;;10.52;4.22;;;;;;;;;;5151689;27;20023;-66
2021/03/19 11:01:23;;;;;;;5.63;4.50;;;;;;;;;;5151865;27;20487;-67
2021/03/19 11:03:50;;;;;;;7.55;5.22;;;;;;;;;;5151239;27;20341;-67
2021/03/19 11:06:34;;;;;;;6.45;5.80;;;;;;;;;;5151476;27;20082;-69
2021/03/19 11:09:15;;;;;;;8.77;5.75;;;;;;;;;;5151720;27;20019;-68
2021/03/19 11:11:42;;;;;;;5.70;4.30;;;;;;;;;;5151693;27;20030;-66
2021/03/19 11:14:09;;;;;;;7.93;4.75;;;;;;;;;;5141433;27;20129;-67
2021/03/19 11:16:38;;;;;;;13.50;7.68;;;;;;;;;;5126683;27;20234;-66
2021/03/19 11:19:10;;;;;;;5.40;4.82;;;;;;;;;;5125161;27;20024;-68
2021/03/19 11:21:37;;;;;;;18.15;11.68;;;;;;;;;;5124517;27;20110;-68
2021/03/19 11:24:06;;;;;;;17.25;10.23;;;;;;;;;;5125095;27;20098;-65
2021/03/19 11:26:34;;;;;;;8.25;5.55;;;;;;;;;;5123764;27;20015;-69
2021/03/19 11:29:18;;;;;;;18.00;11.52;;;;;;;;;;5122768;27;20031;-68
2021/03/19 11:31:55;;;;;;;23.48;12.85;;;;;;;;;;5122398;27;20394;-68
2021/03/19 11:34:35;;;;;;;48.30;24.50;;;;;;;;;;5121460;27;20107;-68
2021/03/19 11:37:04;;;;;;;10.48;7.05;;;;;;;;;;5117495;27;20031;-67
2021/03/19 11:39:37;;;;;;;54.08;29.67;;;;;;;;;;5104064;27;20376;-68
2021/03/19 11:42:07;;;;;;;28.23;16.10;;;;;;;;;;5126761;27;20043;-67
2021/03/19 11:44:33;;;;;;;11.43;7.60;;;;;;;;;;5116055;28;20035;-67
2021/03/19 11:47:29;;;;;;;8.98;5.90;;;;;;;;;;5120657;27;20031;-67
2021/03/19 11:50:26;;;;;;;11.45;7.55;;;;;;;;;;5022980;28;20049;-67
2021/03/19 11:53:13;;;;;;;7.80;5.15;;;;;;;;;;5106230;27;20488;-66
2021/03/19 11:55:41;;;;;;;14.90;9.48;;;;;;;;;;5134491;27;20368;-67
2021/03/19 11:58:08;;;;;;;9.13;6.47;;;;;;;;;;5124455;27;20030;-67
2021/03/19 12:00:36;;;;;;;22.30;13.65;;;;;;;;;;5136497;27;20098;-67
2021/03/19 12:03:07;;;;;;;8.25;6.35;;;;;;;;;;5126146;27;20088;-67
2021/03/19 12:05:34;;;;;;;22.83;14.35;;;;;;;;;;5127068;27;20084;-67
2021/03/19 12:08:00;;;;;;;18.23;10.73;;;;;;;;;;5100065;27;20020;-66
2021/03/19 12:10:28;;;;;;;17.23;10.63;;;;;;;;;;5126809;27;20016;-66
2021/03/19 12:12:55;;;;;;;21.77;13.68;;;;;;;;;;5116047;28;20047;-67
2021/03/19 12:15:21;;;;;;;23.80;14.75;;;;;;;;;;5117700;27;20095;-65
2021/03/19 12:17:48;;;;;;;17.67;11.15;;;;;;;;;;5123964;27;20023;-66
2021/03/19 12:20:14;;;;;;;15.07;9.52;;;;;;;;;;5127533;27;20023;-68
2021/03/19 12:22:41;;;;;;;14.03;9.67;;;;;;;;;;5124527;27;20392;-65
2021/03/19 12:25:27;;;;;;;36.83;26.37;;;;;;;;;;5128049;27;20349;-67
2021/03/19 12:27:53;;;;;;;11.57;7.40;;;;;;;;;;5119351;27;20487;-65
2021/03/19 12:30:20;;;;;;;29.65;14.30;;;;;;;;;;5116440;27;20027;-67
2021/03/19 12:32:46;;;;;;;79.57;29.92;;;;;;;;;;5123533;27;20373;-65
2021/03/19 12:35:13;;;;;;;26.77;14.45;;;;;;;;;;5123838;27;20023;-66
2021/03/19 12:37:40;;;;;;;25.42;15.07;;;;;;;;;;5119558;27;20098;-65
2021/03/19 12:40:10;;;;;;;35.38;16.48;;;;;;;;;;5127863;27;20392;-65
2021/03/19 12:42:36;;;;;;;45.30;20.48;;;;;;;;;;5118694;27;20034;-67
2021/03/19 12:45:04;;;;;;;31.15;15.48;;;;;;;;;;5125859;27;20464;-67
2021/03/19 12:47:30;;;;;;;25.05;12.93;;;;;;;;;;5114331;27;20491;-65
2021/03/19 12:49:57;;;;;;;10.00;7.20;;;;;;;;;;5128494;27;20076;-66
2021/03/19 12:52:23;;;;;;;10.45;8.68;;;;;;;;;;5117027;27;20441;-65
2021/03/19 12:54:49;;;;;;;16.35;11.40;;;;;;;;;;5120990;27;20028;-64
2021/03/19 12:57:15;;;;;;;12.27;7.70;;;;;;;;;;5123062;27;20031;-63
2021/03/19 12:59:41;;;;;;;10.63;7.38;;;;;;;;;;5114748;27;20027;-62
2021/03/19 13:02:08;;;;;;;10.95;6.28;;;;;;;;;;5120116;27;20039;-62
2021/03/19 13:04:34;;;;;;;11.03;8.50;;;;;;;;;;5104259;27;20379;-63
2021/03/19 13:07:02;;;;;;;11.90;7.80;;;;;;;;;;5123470;27;20019;-62
2021/03/19 13:09:28;;;;;;;34.28;14.07;;;;;;;;;;5113084;27;20008;-62
2021/03/19 13:11:55;;;;;;;14.80;8.57;;;;;;;;;;5114353;27;20027;-63
2021/03/19 13:14:21;;;;;;;16.08;9.20;;;;;;;;;;5123743;27;20046;-62
2021/03/19 13:16:47;;;;;;;71.00;26.95;;;;;;;;;;5116144;27;20477;-62
2021/03/19 13:19:13;;;;;;;94.10;30.83;;;;;;;;;;5134292;27;20034;-62
2021/03/19 13:21:39;;;;;;;146.70;55.22;;;;;;;;;;5133850;27;20403;-63
2021/03/19 13:24:06;;;;;;;21.13;12.00;;;;;;;;;;5109320;27;20387;-62
2021/03/19 13:26:33;;;;;;;107.25;51.85;;;;;;;;;;5126949;27;20030;-62
2021/03/19 13:28:59;;;;;;;61.20;31.70;;;;;;;;;;5120403;27;20156;-62
2021/03/19 13:31:25;;;;;;;61.70;30.42;;;;;;;;;;5122673;27;20020;-63
2021/03/19 13:33:51;;;;;;;51.10;26.92;;;;;;;;;;5112214;27;20015;-68
2021/03/19 13:36:18;;;;;;;31.23;22.17;;;;;;;;;;5119535;27;20042;-67
2021/03/19 13:38:44;;;;;;;13.38;9.68;;;;;;;;;;5120924;27;20490;-65
2021/03/19 13:41:11;;;;;;;26.90;16.65;;;;;;;;;;5120612;27;20016;-66
2021/03/19 13:43:39;;;;;;;32.37;21.07;;;;;;;;;;5120491;27;20488;-64
2021/03/19 13:46:06;;;;;;;10.70;8.18;;;;;;;;;;5120028;27;20254;-65
2021/03/19 13:48:33;;;;;;;16.55;14.85;;;;;;;;;;5104169;27;20102;-64
2021/03/19 13:51:00;;;;;;;27.50;22.20;;;;;;;;;;5129591;27;20102;-63
2021/03/19 13:53:27;;;;;;;15.80;12.32;;;;;;;;;;5117972;27;20127;-64
2021/03/19 13:55:53;;;;;;;13.45;10.02;;;;;;;;;;5123232;27;20095;-65
2021/03/19 13:58:21;;;;;;;27.58;18.52;;;;;;;;;;5120329;27;20357;-65
2021/03/19 14:00:47;;;;;;;18.77;13.02;;;;;;;;;;5118797;27;20023;-64
2021/03/19 14:03:13;;;;;;;15.38;10.75;;;;;;;;;;5116153;28;20028;-66
2021/03/19 14:05:40;;;;;;;28.33;17.50;;;;;;;;;;5118984;28;20028;-67
2021/03/19 14:08:07;;;;;;;69.47;34.60;;;;;;;;;;5127873;28;20028;-66
2021/03/19 14:10:34;;;;;;;50.42;29.08;;;;;;;;;;5119807;28;20047;-65
2021/03/19 14:13:00;;;;;;;17.83;10.47;;;;;;;;;;5120950;28;20070;-66
2021/03/19 14:15:27;;;;;;;13.05;9.57;;;;;;;;;;5121179;28;20027;-66
2021/03/19 14:17:54;;;;;;;27.65;15.30;;;;;;;;;;5123492;28;20065;-66
2021/03/19 14:20:48;;;;;;;29.85;16.92;;;;;;;;;;5121183;28;20019;-66
2021/03/19 14:23:14;;;;;;;18.52;11.32;;;;;;;;;;5116181;28;20100;-66
2021/03/19 14:25:40;;;;;;;128.40;67.55;;;;;;;;;;5118346;28;20079;-66
2021/03/19 14:28:08;;;;;;;36.17;21.02;;;;;;;;;;5125493;28;20053;-66
2021/03/19 14:30:35;;;;;;;16.48;11.65;;;;;;;;;;5122286;28;20020;-66
2021/03/19 14:33:02;;;;;;;62.92;35.42;;;;;;;;;;5116111;28;20028;-64
2021/03/19 14:35:29;;;;;;;65.47;37.03;;;;;;;;;;5114710;28;20019;-64
2021/03/19 14:37:55;;;;;;;42.72;24.25;;;;;;;;;;5124779;28;20026;-64
2021/03/19 14:40:23;;;;;;;51.13;28.73;;;;;;;;;;5121117;28;20023;-67
2021/03/19 14:42:49;;;;;;;14.50;10.77;;;;;;;;;;5124636;28;20028;-65
2021/03/19 14:45:15;;;;;;;20.08;12.80;;;;;;;;;;5125305;28;20015;-67
2021/03/19 14:47:47;;;;;;;26.20;14.65;;;;;;;;;;5115772;28;20094;-68
2021/03/19 14:50:14;;;;;;;32.92;18.73;;;;;;;;;;5101027;27;20023;-67
2021/03/19 14:52:41;;;;;;;85.72;44.78;;;;;;;;;;5122334;27;20484;-68
2021/03/19 14:55:08;;;;;;;74.00;38.13;;;;;;;;;;5104337;27;20027;-67